KAKH/AKH METAR and TAF weather

Enter ICAO airport designator
Station Type Date Time Source
KAKH METAR 2021/04/18 02:54 UTC NOAA

KAKH 180254Z AUTO 36004KT 10SM BKN075 14/05 A2986 RMK AO2 SLP108 T01390050 51011


Station Type Date Time Source
KAKH Decoded METAR 2021/04/18 02:54 UTC NOAA

GASTONIA MUNICIPAL AIRPORT, NC, United States (KAKH) 35-12N 81-09W 243M
Apr 17, 2021 - 10:54 PM EDT / 2021.04.18 0254 UTC
Wind: from the N (360 degrees) at 5 MPH (4 KT):0
Visibility: 10 mile(s):0
Sky conditions: mostly cloudy
Temperature: 57.0 F (13.9 C)
Dew Point: 41.0 F (5.0 C)
Relative Humidity: 54%
Pressure (altimeter): 29.86 in. Hg (1011 hPa)
Pressure tendency: 0.03 inches (1.1 hPa) higher than three hours ago
ob: KAKH 180254Z AUTO 36004KT 10SM BKN075 14/05 A2986 RMK AO2 SLP108 T01390050 51011
cycle: 3

Station Type Date Time Source
KAKH TAF UTC NOAA

Error!

Example: see airport list